Date,TemperatureHighF,TemperatureAvgF,TemperatureLowF,DewpointHighF,DewpointAvgF,DewpointLowF,HumidityHigh,HumidityAvg,HumidityLow,PressureMaxIn,PressureMinIn,WindSpeedMaxMPH,WindSpeedAvgMPH,GustSpeedMaxMPH,PrecipitationSumIn
2013-1-1,19.0,7.5,3.0,4.0,-2.8,-15.0,89,63,38,0.00,40.00,12,3,20,0.04
2013-1-2,38.0,12.4,5.0,7.0,-5.6,-16.0,73,45,19,0.00,40.00,5,2,10,0.07
2013-1-3,27.0,15.5,6.0,4.0,-8.5,-29.0,63,35,16,0.00,40.00,4,2,8,0.01
2013-1-4,35.0,24.4,13.0,7.0,-5.9,-18.0,43,26,15,0.00,40.00,6,3,11,0.00
2013-1-5,48.0,30.3,20.0,5.0,-9.0,-17.0,23,18,11,0.00,40.00,10,3,16,0.00
2013-1-6,35.0,27.3,21.0,-4.0,-9.5,-16.0,26,19,13,0.00,40.00,11,6,21,0.00
2013-1-7,41.0,27.8,20.0,1.0,-6.7,-14.0,30,22,11,0.00,40.00,6,3,11,0.00
2013-1-8,44.0,33.7,24.0,10.0,0.8,-21.0,37,25,11,0.00,40.00,7,4,14,0.00
2013-1-9,46.0,35.9,29.0,13.0,1.5,-22.0,32,24,8,0.00,40.00,11,4,21,0.00
2013-1-10,33.0,25.3,18.0,18.0,2.9,-21.0,89,48,9,0.00,40.00,16,7,33,0.00
2013-1-11,18.0,4.5,-7.0,16.0,-0.6,-15.0,90,79,65,0.00,40.00,23,11,39,0.00
2013-1-12,7.0,-3.7,-8.0,-7.0,-12.3,-16.0,77,67,49,0.00,40.00,9,4,16,0.00
2013-1-13,3.0,-3.2,-9.0,-5.0,-10.8,-16.0,75,69,58,0.00,40.00,9,5,18,0.00
2013-1-14,7.0,-0.2,-4.0,-2.0,-7.4,-14.0,78,71,57,0.00,40.00,8,4,14,0.00
2013-1-18,49.0,30.6,20.0,18.0,10.4,-7.0,68,44,24,0.00,40.00,7,3,11,0.00
2013-1-19,47.0,36.1,24.0,7.0,-5.8,-21.0,24,16,10,0.00,40.00,7,3,15,0.00
2013-1-20,47.0,33.9,26.0,11.0,-4.8,-37.0,33,20,4,0.00,40.00,6,2,9,0.00
2013-1-21,45.0,36.4,27.0,9.0,0.8,-13.0,26,22,13,0.00,40.00,9,4,18,0.00
2013-1-22,52.0,39.7,30.0,9.0,-6.4,-44.0,19,15,2,0.00,40.00,11,3,20,0.00
2013-1-23,53.0,40.5,34.0,-5.0,-20.5,-55.0,16,9,1,0.00,40.00,7,3,12,0.00
2013-1-24,41.0,33.0,28.0,25.0,14.0,-13.0,85,51,11,0.00,40.00,11,6,22,0.00
2013-1-25,37.0,30.2,25.0,30.0,26.7,23.0,97,87,75,0.00,40.00,9,3,14,0.00
2013-1-26,32.0,29.5,28.0,30.0,27.9,26.0,98,94,88,0.00,40.00,13,6,24,0.06
2013-1-27,32.0,27.7,25.0,30.0,26.3,22.0,97,95,90,0.00,40.00,13,6,36,0.33
2013-1-28,26.0,20.2,12.0,25.0,18.3,7.0,97,92,88,0.00,40.00,20,11,36,0.08
2013-1-29,15.0,7.2,0.0,10.0,3.0,-5.0,87,82,79,0.00,40.00,15,5,25,0.07
2013-1-30,21.0,9.6,-1.0,16.0,5.5,-6.0,89,83,79,0.00,40.00,12,5,23,0.03
2013-1-31,33.0,23.2,11.0,27.0,19.6,8.0,91,85,79,0.00,40.00,7,4,11,0.27
2013-2-1,34.0,24.4,16.0,20.0,10.4,-7.0,86,59,27,0.00,40.00,11,6,21,0.01
2013-2-2,48.0,32.1,23.0,11.0,-0.2,-12.0,37,26,11,0.00,40.00,6,3,9,0.01
2013-2-3,35.0,26.9,21.0,24.0,10.9,-33.0,90,62,5,0.00,40.00,9,4,19,0.03
2013-2-4,40.0,30.3,21.0,16.0,3.0,-15.0,58,33,16,0.00,40.00,8,4,12,0.01
2013-2-5,53.0,33.6,25.0,20.0,6.8,-9.0,49,34,11,0.00,40.00,6,2,10,0.00
2013-2-6,35.0,27.0,19.0,18.0,13.1,5.0,75,57,36,0.00,40.00,9,5,19,0.00
2013-2-7,38.0,25.2,18.0,13.0,4.1,-16.0,78,43,12,0.00,40.00,9,6,15,0.00
2013-2-8,31.0,23.6,20.0,19.0,12.8,4.0,84,64,43,0.00,40.00,17,13,31,0.00
2013-2-9,20.0,13.3,5.0,12.0,7.8,1.0,87,79,53,0.00,40.00,14,7,32,0.00
2013-2-10,20.0,11.1,7.0,11.0,6.2,3.0,85,81,67,0.00,40.00,11,6,18,0.10
2013-2-11,19.0,9.9,4.0,13.0,5.5,-1.0,85,82,78,0.00,40.00,11,6,19,0.08
2013-2-12,28.0,12.2,2.0,16.0,3.0,-5.0,77,66,52,0.00,40.00,9,4,15,0.11
2013-2-13,41.0,23.7,11.0,18.0,8.7,0.0,79,54,31,0.00,40.00,9,3,13,0.01
2013-2-14,31.0,22.3,14.0,7.0,-3.8,-15.0,43,31,24,0.00,40.00,12,6,30,0.01
2013-2-15,27.0,19.1,10.0,0.0,-5.5,-12.0,44,33,24,0.00,40.00,14,6,29,0.00
2013-2-16,43.0,27.6,18.0,11.0,-2.2,-9.0,38,27,18,0.00,40.00,15,5,28,0.00
2013-2-17,34.0,26.2,19.0,11.0,-5.6,-29.0,69,27,6,0.00,40.00,13,7,22,0.00
2013-2-18,30.0,17.8,6.0,12.0,-3.9,-19.0,84,43,14,0.00,40.00,12,5,25,0.00
2013-2-19,31.0,23.8,15.0,1.0,-6.9,-50.0,36,27,3,0.00,40.00,12,8,26,0.00
2013-2-20,23.0,17.6,12.0,16.0,9.5,3.0,89,72,41,0.00,40.00,12,5,26,0.00
2013-2-21,23.0,14.7,9.0,16.0,9.3,5.0,85,79,71,0.00,40.00,9,4,19,0.09
2013-2-22,22.0,11.5,5.0,10.0,3.4,-8.0,84,70,55,0.00,40.00,10,4,16,0.03
2013-2-23,33.0,15.6,5.0,17.0,3.4,-13.0,89,61,32,0.00,40.00,9,5,19,0.12
2013-2-24,18.0,9.5,3.0,7.0,-1.7,-16.0,85,61,32,0.00,40.00,9,4,17,0.07
2013-2-25,37.0,18.9,7.0,5.0,-4.3,-13.0,50,36,16,0.00,40.00,8,4,14,0.10
2013-2-26,19.0,12.7,6.0,4.0,-4.2,-13.0,62,47,31,0.00,40.00,17,6,32,0.02
2013-2-27,23.0,15.0,6.0,-1.0,-8.4,-19.0,50,35,20,0.00,40.00,9,5,17,0.00
2013-2-28,32.0,20.2,10.0,2.0,-7.0,-18.0,52,31,17,0.00,40.00,11,6,26,0.00
2013-3-1,41.0,28.5,15.0,15.0,7.3,1.0,58,42,27,0.00,40.00,14,8,33,0.00
2013-3-2,47.0,37.0,27.0,20.0,11.7,3.0,52,36,21,0.00,40.00,7,4,17,0.00
2013-3-3,38.0,31.8,26.0,23.0,14.0,6.0,87,50,31,0.00,40.00,13,5,25,0.00
2013-3-4,33.0,25.5,16.0,26.0,18.9,5.0,96,77,45,0.00,40.00,14,6,30,0.11
2013-3-5,43.0,33.3,19.0,8.0,-6.8,-36.0,26,18,6,0.00,40.00,13,6,21,0.09
2013-3-6,41.0,33.1,26.0,15.0,9.4,-3.0,45,37,24,0.00,40.00,13,6,21,0.00
2013-3-7,42.0,34.6,27.0,9.0,5.9,-3.0,45,31,18,0.00,40.00,10,6,20,0.00
2013-3-8,32.0,26.8,21.0,25.0,14.9,2.0,93,65,27,0.00,40.00,16,8,30,0.03
2013-3-9,22.0,17.1,10.0,18.0,13.0,6.0,92,84,78,0.00,40.00,9,6,21,0.13
2013-3-10,34.0,23.3,10.0,16.0,9.3,-4.0,85,57,28,0.00,40.00,11,4,23,0.10
2013-3-11,42.0,29.5,20.0,17.0,6.0,-2.0,47,37,24,0.00,40.00,12,5,19,0.04
2013-3-12,43.0,31.8,22.0,20.0,14.2,8.0,58,48,33,0.00,40.00,11,4,20,0.00
2013-3-13,49.0,38.1,27.0,19.0,11.1,4.0,57,34,20,0.00,40.00,7,4,13,0.00
2013-3-14,52.0,42.6,34.0,16.0,8.1,1.0,32,24,14,0.00,40.00,8,5,14,0.00
2013-3-15,52.0,43.7,36.0,13.0,9.3,4.0,35,24,19,0.00,40.00,12,6,22,0.00
2013-3-16,43.0,37.2,29.0,25.0,17.2,11.0,62,45,33,0.00,40.00,13,6,27,0.00
2013-3-17,38.0,30.3,26.0,24.0,12.7,3.0,92,51,26,0.00,40.00,17,9,33,0.01
2013-3-18,35.0,26.9,20.0,5.0,0.4,-4.0,41,32,18,0.00,40.00,19,12,33,0.01
2013-3-19,41.0,30.0,24.0,7.0,2.8,-4.0,42,31,17,0.00,40.00,12,6,32,0.00
2013-3-20,37.0,29.7,26.0,26.0,12.0,-10.0,92,54,19,0.00,40.00,10,4,16,0.00
2013-3-21,37.0,29.7,22.0,25.0,14.6,-10.0,96,58,23,0.00,40.00,17,8,34,0.08
2013-3-22,36.0,27.5,22.0,13.0,-2.4,-21.0,58,29,13,0.00,40.00,22,10,39,0.03
2013-3-23,22.0,9.8,2.0,1.0,-5.9,-15.0,76,50,27,0.00,40.00,16,9,34,0.00
2013-3-24,25.0,11.3,1.0,-2.0,-8.4,-16.0,60,41,27,0.00,40.00,13,6,28,0.00
2013-3-25,33.0,18.6,6.0,-2.0,-9.1,-20.0,53,31,15,0.00,40.00,12,5,24,0.00
2013-3-26,40.0,29.7,20.0,13.0,8.0,1.0,66,41,29,0.00,40.00,14,6,29,0.00
2013-3-27,44.0,35.6,29.0,18.0,10.7,6.0,63,37,23,0.00,40.00,14,6,29,0.00
2013-3-28,46.0,41.4,35.0,12.0,10.3,9.0,38,28,24,0.00,40.00,10,6,22,0.00
2013-3-29,45.0,37.8,33.0,23.0,16.2,9.0,55,42,32,0.00,40.00,11,5,22,0.00
2013-3-30,46.0,37.8,32.0,20.0,15.5,10.0,57,41,24,0.00,40.00,12,7,29,0.00
2013-3-31,49.0,39.5,32.0,18.0,14.3,7.0,53,37,18,0.00,40.00,11,5,25,0.00
2013-4-1,43.0,37.5,30.0,25.0,15.8,6.0,76,44,23,0.00,40.00,15,7,27,0.00
2013-4-2,38.0,29.8,24.0,21.0,11.4,2.0,81,48,26,0.00,40.00,13,5,22,0.00
2013-4-3,45.0,34.1,25.0,16.0,10.1,0.0,60,39,18,0.00,40.00,10,5,26,0.00
2013-4-4,49.0,40.0,31.0,14.0,9.7,-1.0,41,29,23,0.00,40.00,11,5,19,0.00
2013-4-5,45.0,39.7,35.0,20.0,12.8,7.0,54,34,21,0.00,40.00,14,7,26,0.00
2013-4-6,47.0,38.5,32.0,21.0,12.9,3.0,60,36,20,0.00,40.00,14,7,25,0.00
2013-4-7,44.0,36.9,29.0,19.0,13.5,5.0,59,39,26,0.00,40.00,14,8,30,0.00
2013-4-8,41.0,32.9,24.0,25.0,17.4,8.0,93,55,32,0.00,40.00,18,11,49,0.00
2013-4-9,28.0,23.8,19.0,23.0,20.6,15.0,94,87,74,0.00,40.00,10,6,26,0.14
2013-4-10,25.0,19.9,13.0,21.0,15.9,4.0,92,84,71,0.00,40.00,7,4,16,0.34
2013-4-11,36.0,25.3,12.0,25.0,15.2,4.0,78,66,45,0.00,40.00,10,6,21,0.02
2013-4-12,44.0,32.0,21.0,15.0,11.1,7.0,65,44,26,0.00,40.00,8,5,18,0.02
2013-4-13,44.0,37.4,29.0,17.0,10.0,3.0,41,32,24,0.00,40.00,21,10,40,0.00
2013-4-14,40.0,33.4,25.0,28.0,19.1,14.0,96,59,36,0.00,40.00,18,10,35,0.07
2013-4-15,45.0,36.4,30.0,22.0,18.6,10.0,70,51,25,0.00,40.00,21,13,48,0.07
2013-4-16,46.0,35.9,29.0,20.0,14.6,7.0,65,44,21,0.00,40.00,25,15,45,0.00
2013-4-17,31.0,23.3,12.0,18.0,10.7,-3.0,81,59,28,0.00,40.00,18,12,35,0.00
2013-4-18,21.0,13.9,6.0,-2.0,-6.6,-14.0,55,40,29,0.00,40.00,15,7,33,0.00
2013-4-19,36.0,24.9,13.0,10.0,1.6,-14.0,49,36,27,0.00,40.00,9,6,21,0.00
2013-4-20,37.0,28.6,22.0,23.0,17.0,10.0,80,62,48,0.00,40.00,12,6,22,0.00
2013-4-21,45.0,33.6,23.0,15.0,10.8,7.0,65,40,21,0.00,40.00,14,6,24,0.00
2013-4-22,48.0,41.2,35.0,17.0,13.8,7.0,48,34,21,0.00,40.00,21,11,38,0.00
2013-4-23,41.0,31.3,21.0,17.0,1.5,-20.0,68,31,12,0.00,40.00,16,9,35,0.00
2013-4-24,42.0,33.7,20.0,4.0,-2.9,-25.0,33,20,10,0.00,40.00,11,7,24,0.00
2013-4-25,46.0,38.5,33.0,25.0,10.0,-3.0,70,33,19,0.00,40.00,14,7,27,0.00
2013-4-26,46.0,35.7,28.0,28.0,17.1,9.0,92,49,28,0.00,40.00,12,6,23,0.03
2013-4-27,53.0,43.9,35.0,11.0,6.2,3.0,31,22,13,0.00,40.00,11,6,26,0.03
2013-4-28,57.0,47.3,36.0,12.0,8.8,4.0,30,21,14,0.00,40.00,11,6,22,0.00
2013-4-29,58.0,48.1,39.0,16.0,13.8,9.0,36,26,17,0.00,40.00,16,8,29,0.00
2013-4-30,57.0,50.9,43.0,14.0,8.4,3.0,28,18,12,0.00,40.00,21,12,38,0.00
2013-5-1,47.0,39.1,24.0,19.0,2.6,-20.0,44,24,8,0.00,40.00,17,9,34,0.00
2013-5-2,45.0,31.2,19.0,1.0,-7.2,-21.0,38,21,6,0.00,40.00,12,6,24,0.00
2013-5-3,49.0,39.3,31.0,8.0,1.7,-7.0,25,20,16,0.00,40.00,11,6,20,0.00
2013-5-4,52.0,43.7,34.0,6.0,1.9,-3.0,23,18,11,0.00,40.00,15,7,26,0.00
2013-5-5,46.0,40.8,36.0,25.0,12.0,4.0,63,32,20,0.00,40.00,13,10,24,0.00
2013-5-6,37.0,33.3,30.0,32.0,29.6,23.0,97,87,56,0.00,40.00,12,6,29,0.20
2013-5-7,43.0,35.5,30.0,31.0,25.3,17.0,94,69,43,0.00,40.00,14,5,22,0.09
2013-5-8,36.0,30.8,26.0,29.0,24.5,21.0,95,78,60,0.00,40.00,11,6,20,0.17
2013-5-9,36.0,31.3,28.0,32.0,26.7,22.0,95,83,70,0.00,40.00,8,4,13,0.09
2013-5-10,43.0,36.9,31.0,32.0,25.6,21.0,82,64,46,0.00,40.00,13,5,25,0.09
2013-5-11,50.0,40.5,34.0,28.0,21.9,17.0,64,48,29,0.00,40.00,9,4,20,0.02
2013-5-12,55.0,47.0,37.0,28.0,22.2,19.0,57,39,24,0.00,40.00,9,6,22,0.01
2013-5-13,58.0,51.8,45.0,31.0,24.5,17.0,47,35,27,0.00,40.00,9,6,19,0.00
2013-5-14,58.0,50.3,47.0,34.0,29.5,25.0,58,45,35,0.00,40.00,11,5,27,0.05
2013-5-15,59.0,49.8,43.0,37.0,25.3,5.0,60,41,16,0.00,40.00,14,6,27,0.25
2013-5-16,58.0,46.2,42.0,25.0,-2.3,-99.9,32,26,19,0.00,40.00,13,7,28,0.09
2013-5-17,57.0,48.5,42.0,16.0,4.5,-99.9,30,21,10,0.00,40.00,17,8,33,0.00
2013-5-18,49.0,41.5,35.0,24.0,19.1,13.0,56,41,28,0.00,40.00,15,6,29,0.00
2013-5-19,43.0,35.2,30.0,23.0,20.7,17.0,69,55,42,0.00,40.00,13,7,28,0.00
2013-5-20,43.0,35.6,31.0,30.0,21.7,15.0,91,59,36,0.00,40.00,10,5,22,0.10
2013-5-21,53.0,42.8,33.0,25.0,21.4,16.0,69,45,23,0.00,40.00,13,7,26,0.10
2013-5-22,58.0,48.8,40.0,24.0,17.0,12.0,45,29,16,0.00,40.00,17,7,27,0.01
2013-5-23,61.0,52.6,43.0,19.0,12.5,3.0,33,21,11,0.00,40.00,20,11,40,0.00
2013-5-24,59.0,50.5,42.0,16.0,11.1,3.0,29,21,13,0.00,40.00,15,8,29,0.00
2013-5-25,60.0,51.8,42.0,13.0,8.1,2.0,22,17,12,0.00,40.00,15,8,26,0.00
2013-5-26,58.0,51.3,44.0,16.0,8.3,3.0,24,18,12,0.00,40.00,13,7,24,0.00
2013-5-27,56.0,50.0,40.0,14.0,8.7,0.0,29,19,14,0.00,40.00,14,8,26,0.00
2013-5-28,53.0,47.9,41.0,22.0,13.2,6.0,46,25,18,0.00,40.00,14,7,28,0.00
2013-5-29,50.0,40.2,33.0,32.0,23.0,17.0,85,53,27,0.00,40.00,13,7,27,0.01
2013-5-30,53.0,43.1,31.0,24.0,18.2,11.0,74,41,20,0.00,40.00,19,9,33,0.00
2013-5-31,55.0,46.4,38.0,18.0,12.1,7.0,37,25,16,0.00,40.00,17,10,32,0.00
2013-6-1,63.0,48.3,34.0,16.0,8.1,-1.0,31,20,14,0.00,40.00,11,6,21,0.00
2013-6-2,64.0,55.0,42.0,25.0,17.5,2.0,32,23,16,0.00,40.00,12,7,26,0.00
2013-6-3,61.0,54.3,46.0,28.0,23.1,18.0,44,30,22,0.00,40.00,19,6,33,0.00
2013-6-4,65.0,56.4,47.0,28.0,22.1,13.0,39,27,17,0.00,40.00,13,7,25,0.00
2013-6-5,64.0,56.8,48.0,22.0,18.2,11.0,35,22,16,0.00,40.00,14,8,30,0.00
2013-6-6,64.0,55.1,45.0,29.0,19.6,15.0,35,25,16,0.00,40.00,12,7,23,0.00
2013-6-7,65.0,55.0,46.0,35.0,24.8,19.0,43,32,18,0.00,40.00,14,6,28,0.02
2013-6-8,71.0,60.4,49.0,31.0,26.0,23.0,37,28,18,0.00,40.00,15,8,38,0.02
2013-6-9,74.0,63.0,50.0,28.0,21.8,17.0,35,22,12,0.00,40.00,13,7,26,0.00
2013-6-10,73.0,67.2,59.0,26.0,21.1,15.0,22,17,14,0.00,40.00,15,9,26,0.00
2013-6-11,67.0,59.2,50.0,21.0,15.6,10.0,22,18,14,0.00,40.00,16,8,34,0.00
2013-6-12,70.0,63.2,55.0,24.0,18.4,10.0,22,18,12,0.00,40.00,13,7,23,0.00
2013-6-13,70.0,61.0,53.0,34.0,22.7,16.0,48,23,18,0.00,40.00,14,8,33,0.00
2013-6-14,67.0,58.0,48.0,36.0,26.1,11.0,55,32,17,0.00,40.00,14,8,28,0.00
2013-6-15,63.0,56.0,48.0,31.0,23.3,4.0,49,30,13,0.00,40.00,11,6,28,0.00
2013-6-16,65.0,54.6,45.0,41.0,31.7,25.0,59,43,25,0.00,40.00,11,5,24,0.09
2013-6-17,66.0,58.4,50.0,29.0,23.6,11.0,40,27,18,0.00,40.00,13,6,25,0.01
2013-6-18,67.0,57.6,49.0,39.0,21.8,5.0,51,28,11,0.00,40.00,17,9,28,0.00
2013-6-19,67.0,58.7,49.0,20.0,10.2,-2.0,23,15,9,0.00,40.00,16,8,32,0.00
2013-6-20,63.0,53.5,46.0,20.0,12.7,3.0,24,20,12,0.00,40.00,13,6,23,0.00
2013-6-22,64.0,59.2,52.0,23.0,16.1,10.0,26,19,15,0.00,40.00,15,9,32,0.00
2013-6-23,65.0,57.6,50.0,24.0,13.6,6.0,24,18,12,0.00,40.00,13,7,30,0.00
2013-6-24,62.0,54.7,49.0,19.0,12.4,6.0,24,19,14,0.00,40.00,15,8,39,0.00
2013-6-25,67.0,56.0,44.0,30.0,21.5,10.0,33,26,20,0.00,40.00,11,6,21,0.00
2013-6-26,75.0,63.6,50.0,31.0,28.7,25.0,38,27,19,0.00,40.00,11,6,18,0.00
2013-6-27,78.0,68.3,61.0,34.0,28.4,23.0,26,23,17,0.00,40.00,12,6,29,0.00
2013-6-28,73.0,64.5,58.0,38.0,32.0,22.0,40,30,21,0.00,40.00,12,7,34,0.01
2013-6-29,72.0,59.1,54.0,46.0,38.4,33.0,71,47,30,0.00,40.00,17,6,30,0.09
2013-6-30,71.0,60.4,52.0,43.0,38.5,33.0,55,45,32,0.00,40.00,15,6,28,0.10
2013-7-1,73.0,59.9,46.0,44.0,36.4,28.0,72,44,20,0.00,40.00,9,5,27,0.10
2013-7-2,72.0,57.0,46.0,46.0,39.0,28.0,86,55,21,0.00,40.00,10,5,26,0.00
2013-7-3,71.0,57.5,45.0,45.0,37.3,24.0,85,53,17,0.00,40.00,9,5,35,0.00
2013-7-4,69.0,61.1,54.0,39.0,35.6,31.0,47,39,33,0.00,40.00,8,5,16,0.00
2013-7-5,68.0,59.2,52.0,48.0,41.4,37.0,73,52,39,0.00,40.00,10,4,23,0.50
2013-7-6,69.0,56.5,50.0,45.0,42.1,39.0,79,60,37,0.00,40.00,12,5,22,0.03
2013-7-7,72.0,61.7,51.0,44.0,41.2,38.0,75,49,33,0.00,40.00,10,6,21,0.02
2013-7-8,74.0,61.8,51.0,43.0,38.9,34.0,66,44,23,0.00,40.00,12,5,23,0.00
2013-7-9,73.0,63.6,53.0,44.0,38.3,34.0,63,41,26,0.00,40.00,12,5,18,0.00
2013-7-10,72.0,61.2,54.0,47.0,37.9,-99.9,72,46,27,0.00,40.00,16,7,34,0.02
2013-7-11,69.0,59.7,53.0,48.0,43.3,37.0,75,55,41,0.00,40.00,13,6,23,0.16
2013-7-12,68.0,56.6,50.0,49.0,45.5,42.0,91,67,48,0.00,40.00,14,4,32,1.03
2013-7-13,68.0,57.6,51.0,48.0,45.1,42.0,80,64,44,0.00,40.00,9,5,23,0.86
2013-7-14,68.0,58.6,53.0,48.0,44.6,40.0,73,60,43,0.00,40.00,8,4,15,0.41
2013-7-15,63.0,53.3,49.0,50.0,47.5,41.0,97,82,58,0.00,40.00,7,3,13,1.43
2013-7-16,53.0,50.9,48.0,52.0,48.5,43.0,99,92,72,0.00,40.00,5,4,9,0.17
2013-7-17,59.0,52.0,46.0,52.0,46.8,43.0,96,82,69,0.00,40.00,9,4,16,0.01
2013-7-18,62.0,55.5,47.0,52.0,45.2,39.0,81,69,56,0.00,40.00,9,5,17,0.01
2013-7-19,65.0,57.1,52.0,48.0,43.9,38.0,73,62,53,0.00,40.00,8,4,19,0.01
2013-7-20,68.0,56.3,51.0,50.0,43.6,-99.9,86,65,47,0.00,40.00,9,4,13,0.00
2013-7-21,66.0,58.2,51.0,47.0,41.5,37.0,71,55,39,0.00,40.00,8,4,15,0.02
2013-7-22,70.0,57.8,51.0,44.0,39.3,35.0,63,51,37,0.00,40.00,8,4,20,0.08
2013-7-23,70.0,60.8,54.0,42.0,36.8,33.0,48,41,25,0.00,40.00,15,6,23,0.08
2013-7-24,68.0,58.7,49.0,49.0,39.5,34.0,95,51,29,0.00,40.00,18,7,31,0.21
2013-7-25,69.0,57.1,47.0,52.0,45.8,37.0,97,68,44,0.00,40.00,8,5,14,0.21
2013-7-26,67.0,58.6,49.0,51.0,45.1,37.0,85,62,47,0.00,40.00,14,5,24,0.06
2013-7-27,63.0,55.0,47.0,53.0,45.6,41.0,84,71,58,0.00,40.00,10,4,16,0.12
2013-7-28,59.0,50.5,48.0,51.0,46.6,40.0,100,88,62,0.00,40.00,10,4,18,0.32
2013-7-29,63.0,53.4,46.0,46.0,42.6,40.0,93,68,46,0.00,40.00,12,6,29,0.07
2013-7-30,65.0,56.8,47.0,42.0,38.2,34.0,76,51,34,0.00,40.00,12,6,21,0.02
2013-7-31,69.0,62.4,52.0,38.0,34.3,31.0,51,36,26,0.00,40.00,9,5,16,0.00
2013-8-1,59.0,54.9,51.0,49.0,43.2,30.0,92,68,33,0.00,40.00,7,4,17,0.08
2013-8-2,66.0,56.4,47.0,51.0,46.1,42.0,94,70,43,0.00,40.00,11,6,25,0.29
2013-8-3,65.0,54.9,47.0,50.0,45.8,38.0,96,72,56,0.00,40.00,10,6,20,0.50
2013-8-4,68.0,59.9,50.0,47.0,42.7,35.0,87,55,41,0.00,40.00,13,5,26,0.01
2013-8-5,65.0,54.6,48.0,47.0,44.4,40.0,90,70,49,0.00,40.00,8,4,15,0.03
2013-8-6,61.0,52.1,47.0,47.0,43.4,37.0,90,73,53,0.00,40.00,12,4,22,0.14
2013-8-7,55.0,47.8,45.0,49.0,44.1,39.0,97,87,74,0.00,40.00,7,3,15,0.27
2013-8-8,54.0,47.5,44.0,45.0,40.8,35.0,91,78,65,0.00,40.00,10,4,15,0.27
2013-8-9,62.0,53.1,45.0,43.0,38.1,33.0,76,57,46,0.00,40.00,9,5,14,0.01
2013-8-10,60.0,49.4,41.0,44.0,38.7,34.0,96,68,53,0.00,40.00,13,7,24,0.52
2013-8-11,60.0,52.0,40.0,41.0,36.9,33.0,84,58,40,0.00,40.00,11,5,16,0.02
2013-8-12,61.0,54.1,48.0,45.0,39.2,33.0,64,57,49,0.00,40.00,8,4,19,0.00
2013-8-13,64.0,55.3,48.0,43.0,34.9,-99.9,63,49,32,0.00,40.00,9,6,26,0.00
2013-8-14,66.0,57.4,50.0,35.0,28.2,-99.9,41,34,28,0.00,40.00,9,5,22,0.00
2013-8-15,70.0,54.3,51.0,34.0,12.0,-99.9,34,26,23,0.00,40.00,13,6,26,0.00
2013-8-16,70.0,61.2,55.0,34.0,24.4,-99.9,31,26,22,0.00,40.00,6,4,22,0.00
2013-8-17,68.0,61.2,55.0,42.0,35.5,25.0,51,39,28,0.00,40.00,8,5,23,0.00
2013-8-18,67.0,57.7,52.0,44.0,39.7,35.0,58,51,41,0.00,40.00,10,4,20,0.00
2013-8-21,66.0,58.2,49.0,46.0,39.5,34.0,90,51,42,0.00,40.00,15,7,25,0.00
2013-8-22,68.0,59.0,52.0,46.0,41.1,36.0,64,52,38,0.00,40.00,10,6,19,0.00
2013-8-23,65.0,56.4,47.0,44.0,36.5,20.0,79,50,22,0.00,40.00,17,8,40,0.09
2013-8-24,60.0,51.6,47.0,50.0,42.4,34.0,89,72,54,0.00,40.00,9,5,29,0.29
2013-8-25,57.0,49.5,47.0,51.0,46.8,43.0,97,91,79,0.00,40.00,10,7,17,0.80
2013-8-26,64.0,54.7,49.0,52.0,47.9,44.0,96,79,58,0.00,40.00,9,6,21,0.36
2013-8-27,61.0,54.8,51.0,50.0,46.2,44.0,83,73,65,0.00,40.00,8,5,15,0.01
2013-8-28,69.0,62.2,56.0,46.0,43.5,42.0,62,51,37,0.00,40.00,10,6,17,0.00
2013-8-29,66.0,59.1,51.0,50.0,43.5,40.0,69,57,43,0.00,40.00,10,4,14,0.00
2013-8-30,68.0,61.0,55.0,47.0,42.6,38.0,63,51,37,0.00,40.00,11,5,24,0.00
2013-8-31,68.0,60.0,54.0,47.0,42.5,37.0,64,53,40,0.00,40.00,11,6,24,0.00
2013-9-1,69.0,60.3,52.0,46.0,41.8,38.0,67,52,35,0.00,40.00,13,7,20,0.00
2013-9-2,68.0,57.0,49.0,48.0,43.5,38.0,93,64,33,0.00,40.00,10,5,18,0.13
2013-9-3,67.0,57.7,52.0,47.0,43.2,40.0,67,59,47,0.00,40.00,11,4,18,0.00
2013-9-4,71.0,60.7,54.0,47.0,42.2,38.0,70,52,34,0.00,40.00,17,5,26,0.02
2013-9-5,70.0,60.1,50.0,46.0,38.7,28.0,76,47,31,0.00,40.00,11,6,22,0.02
2013-9-6,71.0,61.3,53.0,38.0,32.7,27.0,42,34,28,0.00,40.00,10,5,22,0.00
2013-9-7,69.0,60.4,51.0,38.0,35.0,29.0,51,39,28,0.00,40.00,9,6,21,0.00
2013-9-18,49.0,47.1,44.0,46.0,44.4,39.0,95,91,81,0.00,40.00,9,6,20,0.94
2013-9-19,59.0,49.8,43.0,43.0,38.8,32.0,92,68,43,0.00,40.00,9,5,22,0.16
2013-9-20,60.0,52.1,44.0,37.0,31.2,21.0,55,45,30,0.00,40.00,9,6,19,0.00
2013-9-21,58.0,51.1,45.0,41.0,36.0,29.0,73,57,45,0.00,40.00,9,6,20,0.00
2013-9-22,48.0,41.5,32.0,44.0,38.2,26.0,96,88,73,0.00,40.00,13,7,27,1.06
2013-9-23,51.0,39.0,30.0,31.0,27.7,23.0,91,66,41,0.00,40.00,9,6,24,0.39
2013-9-24,57.0,49.0,40.0,27.0,20.3,10.0,55,34,16,0.00,40.00,9,6,20,0.08
2013-9-25,55.0,48.4,40.0,33.0,25.8,21.0,52,41,33,0.00,40.00,14,10,29,0.00
2013-9-26,53.0,45.2,38.0,27.0,21.2,17.0,48,39,27,0.00,40.00,19,12,39,0.00
2013-9-27,45.0,33.4,25.0,37.0,25.8,14.0,98,75,47,0.00,40.00,20,10,37,0.29
2013-9-28,47.0,37.0,22.0,27.0,18.5,1.0,70,48,26,0.00,40.00,7,4,17,0.04
2013-9-29,55.0,45.1,35.0,24.0,16.2,2.0,50,32,18,0.00,40.00,11,6,19,0.00
2013-9-30,59.0,49.4,39.0,30.0,20.7,12.0,40,32,20,0.00,40.00,9,5,16,0.00
2013-10-3,51.0,43.5,37.0,27.0,22.8,17.0,58,44,36,0.00,40.00,16,7,36,0.00
2013-10-4,40.0,31.2,21.0,24.0,7.4,-3.0,76,40,19,0.00,40.00,14,8,30,0.00
2013-10-5,41.0,29.8,19.0,18.0,10.7,0.0,56,44,35,0.00,40.00,9,5,23,0.00
2013-10-6,54.0,44.7,32.0,23.0,12.2,-13.0,47,28,12,0.00,40.00,9,4,14,0.00
2013-10-7,56.0,50.4,42.0,22.0,17.3,7.0,33,27,17,0.00,40.00,10,6,15,0.00
2013-10-8,51.0,44.9,39.0,23.0,18.3,11.0,49,34,26,0.00,40.00,14,7,26,0.00
2013-10-9,46.0,40.3,34.0,30.0,20.8,15.0,86,47,32,0.00,40.00,16,8,34,0.03
2013-10-21,46.0,36.1,27.0,18.0,11.4,-1.0,59,38,20,0.00,40.00,13,6,24,0.00
2013-10-22,49.0,41.5,35.0,19.0,13.7,0.0,43,32,21,0.00,40.00,9,5,15,0.00
2013-10-23,52.0,43.6,37.0,21.0,16.1,13.0,44,33,23,0.00,40.00,9,5,16,0.00
2013-10-24,53.0,44.5,38.0,24.0,17.3,6.0,57,34,24,0.00,40.00,10,6,17,0.00
2013-10-25,41.0,35.0,31.0,31.0,28.3,24.0,90,77,58,0.00,40.00,8,4,13,0.05
2013-10-26,47.0,36.6,31.0,31.0,25.7,21.0,85,66,40,0.00,40.00,10,4,16,0.04
2013-10-27,45.0,36.8,32.0,30.0,25.9,22.0,76,65,48,0.00,40.00,11,6,21,0.03
2013-10-28,42.0,36.3,32.0,25.0,18.9,-99.9,71,52,35,0.00,40.00,14,11,33,0.00
2013-10-29,33.0,29.0,23.0,26.0,22.1,14.0,96,77,46,0.00,40.00,17,11,35,0.01
2013-10-30,29.0,20.2,15.0,20.0,15.2,11.0,91,81,61,0.00,40.00,8,4,24,0.05
2013-10-31,33.0,23.2,13.0,21.0,14.9,9.0,86,71,58,0.00,40.00,8,4,16,0.05
2013-11-1,43.0,29.8,20.0,21.0,13.9,5.0,91,57,23,0.00,40.00,10,4,22,0.01
2013-11-2,48.0,39.9,30.0,21.0,11.4,-3.0,42,31,19,0.00,40.00,11,5,20,0.01
2013-11-3,38.0,32.0,28.0,24.0,15.6,9.0,68,51,39,0.00,40.00,12,6,25,0.00
2013-11-4,35.0,28.5,24.0,26.0,15.2,2.0,94,59,38,0.00,40.00,10,5,17,0.00
2013-11-5,30.0,24.5,17.0,23.0,10.2,-7.0,91,59,26,0.00,40.00,9,5,18,0.17
2013-11-6,37.0,28.9,18.0,14.0,8.1,-13.0,56,42,23,0.00,40.00,13,6,24,0.02
2013-11-7,46.0,37.1,28.0,18.0,12.3,3.0,42,36,30,0.00,40.00,6,4,12,0.00
2013-11-8,46.0,36.7,30.0,16.0,10.9,3.0,45,35,26,0.00,40.00,9,5,16,0.00
2013-11-9,48.0,39.1,30.0,18.0,12.6,7.0,44,34,27,0.00,40.00,8,5,16,0.00
2013-11-10,48.0,40.7,35.0,17.0,12.4,6.0,38,31,25,0.00,40.00,9,5,17,0.00
2013-11-11,52.0,41.1,31.0,16.0,8.6,4.0,35,26,15,0.00,40.00,9,5,19,0.00
2013-11-12,48.0,40.6,34.0,16.0,10.2,4.0,39,29,24,0.00,40.00,10,5,16,0.00
2013-11-13,43.0,35.5,31.0,19.0,14.6,10.0,50,42,33,0.00,40.00,8,4,13,0.00
2013-11-14,41.0,33.0,27.0,20.0,14.7,2.0,63,47,35,0.00,40.00,10,5,19,0.00
2013-11-15,33.0,28.0,24.0,27.0,18.7,2.0,96,70,37,0.00,40.00,13,6,25,0.00
2013-11-16,26.0,24.3,22.0,25.0,22.2,19.0,95,92,85,0.00,40.00,15,8,29,0.00
2013-11-17,38.0,28.1,22.0,27.0,21.9,11.0,93,79,51,0.00,40.00,13,6,29,0.27
2013-11-18,44.0,31.4,22.0,22.0,14.1,2.0,70,50,24,0.00,40.00,6,3,8,0.01
2013-11-19,40.0,31.3,27.0,26.0,20.2,8.0,77,64,41,0.00,40.00,7,4,12,0.00
2013-11-20,38.0,28.7,26.0,27.0,23.0,16.0,96,80,58,0.00,40.00,8,4,15,0.00
2013-11-21,29.0,26.8,25.0,27.0,25.4,24.0,96,94,86,0.00,40.00,11,5,20,0.04
2013-11-22,31.0,27.8,26.0,28.0,26.1,24.0,97,94,88,0.00,40.00,16,9,23,0.01
2013-11-23,30.0,26.8,23.0,29.0,25.8,21.0,97,96,94,0.00,40.00,16,9,27,0.01
2013-11-24,28.0,20.9,16.0,25.0,18.7,14.0,94,91,87,0.00,40.00,6,3,14,0.09
2013-11-25,38.0,23.3,15.0,31.0,18.6,12.0,91,83,68,0.00,40.00,7,3,11,0.51
2013-11-26,42.0,25.4,20.0,27.0,16.8,11.0,82,70,52,0.00,40.00,5,2,8,0.01
2013-11-27,44.0,26.2,21.0,22.0,11.9,6.0,74,55,39,0.00,40.00,6,2,7,0.01
2013-11-28,40.0,30.3,25.0,12.0,7.5,4.0,47,38,29,0.00,40.00,12,6,20,0.00
2013-11-29,39.0,27.8,23.0,20.0,15.6,11.0,77,60,42,0.00,40.00,6,3,9,0.00
2013-11-30,38.0,27.5,21.0,25.0,18.6,10.0,85,70,47,0.00,40.00,8,4,14,0.00
2013-12-1,38.0,27.0,22.0,19.0,10.2,2.0,85,50,27,0.00,40.00,13,4,28,0.00
2013-12-2,42.0,29.9,22.0,17.0,13.1,7.0,71,51,33,0.00,40.00,11,6,22,0.00
2013-12-3,31.0,26.6,24.0,23.0,14.4,7.0,94,61,42,0.00,40.00,16,8,33,0.00
2013-12-12,43.0,30.8,23.0,10.0,5.8,-20.0,51,36,12,0.00,40.00,5,4,10,0.00
2013-12-13,37.0,23.9,19.0,15.0,8.7,0.0,74,53,30,0.00,40.00,12,5,22,0.00
2013-12-14,37.0,23.5,13.0,14.0,2.7,-9.0,62,41,17,0.00,40.00,9,4,26,0.00
2013-12-15,47.0,29.0,21.0,13.0,5.9,-5.0,54,39,22,0.00,40.00,8,4,27,0.00
2013-12-16,47.0,35.1,28.0,14.0,7.4,-5.0,41,32,18,0.00,40.00,13,4,25,0.00
2013-12-17,50.0,43.3,35.0,6.0,1.3,-12.0,22,17,11,0.00,40.00,4,3,7,0.00
2013-12-18,47.0,36.4,29.0,14.0,5.0,-6.0,46,28,15,0.00,40.00,8,5,16,0.00
2013-12-19,34.0,28.3,22.0,19.0,12.0,4.0,87,52,30,0.00,40.00,10,6,20,0.00
2013-12-20,27.0,20.6,16.0,21.0,16.9,10.0,92,86,77,0.00,40.00,9,5,17,0.05
2013-12-21,28.0,16.3,10.0,16.0,7.8,-5.0,80,69,50,0.00,40.00,8,3,21,0.06
2013-12-22,28.0,14.5,9.0,8.0,-1.9,-11.0,69,48,29,0.00,40.00,9,4,18,0.01
2013-12-23,34.0,19.1,9.0,13.0,2.7,-10.0,71,50,24,0.00,40.00,5,3,17,0.00
2013-12-24,34.0,26.2,18.0,19.0,11.9,-4.0,74,55,37,0.00,40.00,12,7,25,0.00
2013-12-25,38.0,27.4,19.0,5.0,-6.2,-24.0,37,23,11,0.00,40.00,7,3,12,0.00
2013-12-26,43.0,32.6,25.0,11.0,2.9,-15.0,40,29,14,0.00,40.00,7,4,15,0.00
2013-12-28,39.0,28.7,24.0,17.0,13.3,10.0,71,53,37,0.00,40.00,9,3,14,0.00
2013-12-29,32.0,22.6,18.0,15.0,9.7,-7.0,80,59,31,0.00,40.00,6,4,12,0.00
2013-12-30,39.0,26.1,18.0,18.0,3.9,-14.0,51,39,22,0.00,40.00,5,3,9,0.00
2013-12-31,37.0,27.9,22.0,18.0,11.2,0.0,75,50,37,0.00,40.00,17,6,28,0.00
2014-1-1,36.0,26.6,21.0,19.0,1.3,-14.0,77,40,13,0.00,40.00,9,6,22,0.00
2014-1-2,44.0,30.6,23.0,4.0,-4.9,-16.0,30,21,15,0.00,40.00,8,4,12,0.00